Ana Sayfa
METAR-TAF:

METAR-TAF

Havaalanları :

Kuveyt, Kuveyt

Enlem: 29-13N, Boylam: 047-59E, yükseklik: 55 m

Güncel hava durumu gözlemi

Rapor saat 22:00 UTC de 45 dakika önce yapıldı.
Sakin rüzgar
Sıcaklık 17°C
Nem 42%
Basınç 1016 hPa
Görüş mesafesi 10 km veya daha fazla
1500 m altında bulut yok ve kümülonimbus yok

METAR: OKBK 192200Z 00000KT CAVOK 17/04 Q1016 NOSIG

Saat: 01:45 (22:45 UTC)

Tahmin

Rapor saat 16:45 UTC de 6 saat ve 0 dakika önce yapıldı.
Ayın 19'si saat 18 UTC'den ayın 20'si saat 24 UTC'ye kadar geçerli Tahmin
Rüzgar kuzeydan 8 kt
Görüş mesafesi: 6000 m
Dönüşüyor
ayın 19'si saat 20 UTC'den ayın 19'si saat 22 UTC'ye kadar
Rüzgar değişken yönden 3 kt

TAF: OKBK 191645Z 1918/2024 36008KT 6000 NSC BECMG 1920/1922 VRB03KT

4.000'den fazla havaalanı için hava durumu gözlemleri ve tahminleri (METAR ve TAF raporları).

Kullanılabilir istasyonlar harita üzerinde sarı ve kırmızı noktalarla gösterilir.

İstasyonun adını görmek için fareyi noktanın üzerinde gezdirin.

Sonrasında hava gözlem ve tahminlerini görmek için tıklayın.

Haritayı değiştirmek için: yaklaştırmak için siyah artı işaretli yeşil düğmeye ve uzaklaştırmak için de eksi işaretli düğmeye hızla tıklayın; bitişik haritalar için yeşil okları kullanın.


METAR-TAF: